createdAt,value
2018-04-01T00:00:57.827Z,80.90
2018-04-01T00:01:57.804Z,79.85
2018-04-01T00:02:57.774Z,80.14
2018-04-01T00:03:57.755Z,80.24
2018-04-01T00:04:57.731Z,79.10
2018-04-01T00:05:57.697Z,77.96
2018-04-01T00:06:57.669Z,77.11
2018-04-01T00:07:57.641Z,77.96
2018-04-01T00:08:57.615Z,79.76
2018-04-01T00:09:57.591Z,79.66
2018-04-01T00:10:57.565Z,78.53
2018-04-01T00:11:57.536Z,79.38
2018-04-01T00:12:57.509Z,77.86
2018-04-01T00:13:57.483Z,77.58
2018-04-01T00:14:57.454Z,78.05
2018-04-01T00:15:57.428Z,76.63
2018-04-01T00:16:57.403Z,75.78
2018-04-01T00:17:57.375Z,75.02
2018-04-01T00:18:57.349Z,74.45
2018-04-01T00:19:57.323Z,74.45
2018-04-01T00:20:57.300Z,73.22
2018-04-01T00:21:57.318Z,73.03
2018-04-01T00:22:57.243Z,73.22
2018-04-01T00:23:57.216Z,72.64
2018-04-01T00:24:57.190Z,71.41
2018-04-01T00:25:57.164Z,71.60
2018-04-01T00:26:57.136Z,70.75
2018-04-01T00:27:57.109Z,71.51
2018-04-01T00:28:57.086Z,71.41
2018-04-01T00:29:57.057Z,70.94
2018-04-01T00:30:57.029Z,71.51
2018-04-01T00:31:57.003Z,71.03
2018-04-01T00:32:56.976Z,70.94
2018-04-01T00:33:56.951Z,69.99
2018-04-01T00:34:56.922Z,70.75
2018-04-01T00:35:57.647Z,69.23
2018-04-01T00:36:56.872Z,69.80
2018-04-01T00:37:56.843Z,67.43
2018-04-01T00:38:56.817Z,68.76
2018-04-01T00:39:56.790Z,69.61
2018-04-01T00:40:56.763Z,68.66
2018-04-01T00:41:56.738Z,68.00
2018-04-01T00:42:56.710Z,67.81
2018-04-01T00:43:56.683Z,67.52
2018-04-01T00:44:56.657Z,68.38
2018-04-01T00:45:56.632Z,66.58
2018-04-01T00:46:57.354Z,67.81
2018-04-01T00:47:56.579Z,71.32
2018-04-01T00:48:56.552Z,70.47
2018-04-01T00:49:56.525Z,70.09
2018-04-01T00:50:56.498Z,69.99
2018-04-01T00:51:56.573Z,70.18
2018-04-01T00:52:56.445Z,70.09
2018-04-01T00:53:56.420Z,70.94
2018-04-01T00:54:56.393Z,70.47
2018-04-01T00:55:56.366Z,70.47
2018-04-01T00:56:56.342Z,69.90
2018-04-01T00:57:56.314Z,70.65
2018-04-01T00:58:56.286Z,70.47
2018-04-01T00:59:56.261Z,71.70
2018-04-01T01:00:56.234Z,71.41
2018-04-01T01:01:56.208Z,71.22
2018-04-01T01:02:56.181Z,71.13
2018-04-01T01:03:56.155Z,71.22
2018-04-01T01:04:56.127Z,71.70
2018-04-01T01:05:56.102Z,71.80
2018-04-01T01:06:56.074Z,71.03
2018-04-01T01:07:56.051Z,71.70
2018-04-01T01:08:56.069Z,72.17
2018-04-01T01:09:55.996Z,72.27
2018-04-01T01:10:55.968Z,71.51
2018-04-01T01:11:55.943Z,70.09
2018-04-01T01:12:55.918Z,69.90
2018-04-01T01:13:55.891Z,70.09
2018-04-01T01:14:55.863Z,70.18
2018-04-01T01:15:55.836Z,70.09
2018-04-01T01:16:55.810Z,69.23
2018-04-01T01:17:55.785Z,68.76
2018-04-01T01:18:55.758Z,68.76
2018-04-01T01:19:55.733Z,68.10
2018-04-01T01:20:55.709Z,68.00
2018-04-01T01:21:55.682Z,67.81
2018-04-01T01:22:55.652Z,68.66
2018-04-01T01:23:55.625Z,68.85
2018-04-01T01:24:55.599Z,67.52
2018-04-01T01:25:55.574Z,68.10
2018-04-01T01:26:55.547Z,67.62
2018-04-01T01:27:55.521Z,66.20
2018-04-01T01:28:55.496Z,67.14
2018-04-01T01:29:55.467Z,66.58
2018-04-01T01:30:55.441Z,65.53
2018-04-01T01:31:55.414Z,64.20
2018-04-01T01:32:55.390Z,62.88
2018-04-01T01:33:55.362Z,63.92
2018-04-01T01:34:55.336Z,63.54
2018-04-01T01:35:55.309Z,63.45
2018-04-01T01:36:55.283Z,66.48
2018-04-01T01:37:55.258Z,65.34
2018-04-01T01:38:55.481Z,64.97
2018-04-01T01:39:55.205Z,64.59
2018-04-01T01:40:55.181Z,66.20
2018-04-01T01:41:55.151Z,65.75
2018-04-01T01:42:55.126Z,66.20
2018-04-01T01:43:55.098Z,65.85
2018-04-01T01:44:55.072Z,66.86
2018-04-01T01:45:55.046Z,66.86
2018-04-01T01:46:55.019Z,66.01
2018-04-01T01:47:54.991Z,65.72
2018-04-01T01:48:54.965Z,65.53
2018-04-01T01:49:55.691Z,66.48
2018-04-01T01:50:54.913Z,66.33
2018-04-01T01:51:54.885Z,66.67
2018-04-01T01:52:54.859Z,65.72
2018-04-01T01:53:54.833Z,65.06
2018-04-01T01:54:54.811Z,64.30
2018-04-01T01:55:54.780Z,64.20
2018-04-01T01:56:54.753Z,63.54
2018-04-01T01:57:54.728Z,63.45
2018-04-01T01:58:54.700Z,62.40
2018-04-01T01:59:54.673Z,62.21
2018-04-01T02:00:54.647Z,62.21
2018-04-01T02:01:54.620Z,63.17
2018-04-01T02:02:54.593Z,62.40
2018-04-01T02:03:54.569Z,61.27
2018-04-01T02:04:54.540Z,61.83
2018-04-01T02:05:54.513Z,64.87
2018-04-01T02:06:54.486Z,63.45
2018-04-01T02:07:54.460Z,64.01
2018-04-01T02:08:54.433Z,63.35
2018-04-01T02:09:54.433Z,62.02
2018-04-01T02:10:54.378Z,63.45
2018-04-01T02:11:54.352Z,61.74
2018-04-01T02:12:54.326Z,61.46
2018-04-01T02:13:54.301Z,63.92
2018-04-01T02:14:54.273Z,63.54
2018-04-01T02:15:54.246Z,63.26
2018-04-01T02:16:54.219Z,63.73
2018-04-01T02:17:54.193Z,64.40
2018-04-01T02:18:54.166Z,63.73
2018-04-01T02:19:54.141Z,67.90
2018-04-01T02:20:54.115Z,67.24
2018-04-01T02:21:54.085Z,67.62
2018-04-01T02:22:54.057Z,66.58
2018-04-01T02:23:54.032Z,66.67
2018-04-01T02:24:54.004Z,66.01
2018-04-01T02:25:53.978Z,65.44
2018-04-01T02:26:54.701Z,66.10
2018-04-01T02:27:53.924Z,66.48
2018-04-01T02:28:53.897Z,65.82
2018-04-01T02:29:53.869Z,64.97
2018-04-01T02:30:53.841Z,64.87
2018-04-01T02:31:53.816Z,65.34
2018-04-01T02:32:53.788Z,64.87
2018-04-01T02:33:53.765Z,64.68
2018-04-01T02:34:53.735Z,66.48
2018-04-01T02:35:53.710Z,65.72
2018-04-01T02:36:53.682Z,64.68
2018-04-01T02:37:53.654Z,65.82
2018-04-01T02:38:53.626Z,64.40
2018-04-01T02:39:53.600Z,64.87
2018-04-01T02:40:53.574Z,66.48
2018-04-01T02:41:53.551Z,65.34
2018-04-01T02:42:53.520Z,64.78
2018-04-01T02:43:53.492Z,64.49
2018-04-01T02:44:53.465Z,65.34
2018-04-01T02:45:53.439Z,64.40
2018-04-01T02:46:53.416Z,64.49
2018-04-01T02:47:53.384Z,64.87
2018-04-01T02:48:53.357Z,63.26
2018-04-01T02:49:53.330Z,64.78
2018-04-01T02:50:53.304Z,64.30
2018-04-01T02:51:53.278Z,64.30
2018-04-01T02:52:53.249Z,64.30
2018-04-01T02:53:53.224Z,63.73
2018-04-01T02:54:53.205Z,63.64
2018-04-01T02:55:53.169Z,61.65
2018-04-01T02:56:53.142Z,60.50
2018-04-01T02:57:53.118Z,59.66
2018-04-01T02:58:53.088Z,63.64
2018-04-01T02:59:53.059Z,60.79
2018-04-01T03:00:53.035Z,60.79
2018-04-01T03:01:53.010Z,60.98
2018-04-01T03:02:52.980Z,60.70
2018-04-01T03:03:52.954Z,59.56
2018-04-01T03:04:52.926Z,57.28
2018-04-01T03:05:52.900Z,58.33
2018-04-01T03:06:52.885Z,56.52
2018-04-01T03:07:52.846Z,54.72
2018-04-01T03:08:52.818Z,54.63
2018-04-01T03:09:52.792Z,56.90
2018-04-01T03:10:52.766Z,55.86
2018-04-01T03:11:52.745Z,55.19
2018-04-01T03:12:52.710Z,56.43
2018-04-01T03:13:52.683Z,57.66
2018-04-01T03:14:52.655Z,55.67
2018-04-01T03:15:52.628Z,55.00
2018-04-01T03:16:52.605Z,56.71
2018-04-01T03:17:52.576Z,59.18
2018-04-01T03:18:52.547Z,57.66
2018-04-01T03:19:52.522Z,56.90
2018-04-01T03:20:52.493Z,56.62
2018-04-01T03:21:52.467Z,55.96
2018-04-01T03:22:52.440Z,55.96
2018-04-01T03:23:52.413Z,55.10
2018-04-01T03:24:53.137Z,55.67
2018-04-01T03:25:52.359Z,56.05
2018-04-01T03:26:52.336Z,58.89
2018-04-01T03:27:52.305Z,57.57
2018-04-01T03:28:52.277Z,58.89
2018-04-01T03:29:52.252Z,57.09
2018-04-01T03:30:52.226Z,59.46
2018-04-01T03:31:52.198Z,59.18
2018-04-01T03:32:52.171Z,59.18
2018-04-01T03:33:52.143Z,58.14
2018-04-01T03:34:52.115Z,57.95
2018-04-01T03:35:52.088Z,57.57
2018-04-01T03:36:52.063Z,55.86
2018-04-01T03:37:52.042Z,56.24
2018-04-01T03:38:52.008Z,55.48
2018-04-01T03:39:51.980Z,54.91
2018-04-01T03:40:51.954Z,56.05
2018-04-01T03:41:51.927Z,55.10
2018-04-01T03:42:51.898Z,55.67
2018-04-01T03:43:51.873Z,54.82
2018-04-01T03:44:51.846Z,53.58
2018-04-01T03:45:51.819Z,53.68
2018-04-01T03:46:51.790Z,54.44
2018-04-01T03:47:51.764Z,55.19
2018-04-01T03:48:51.737Z,55.86
2018-04-01T03:49:51.717Z,57.95
2018-04-01T03:50:51.682Z,57.76
2018-04-01T03:51:51.664Z,56.34
2018-04-01T03:52:51.630Z,59.18
2018-04-01T03:53:51.602Z,56.81
2018-04-01T03:54:51.578Z,55.96
2018-04-01T03:55:51.551Z,59.27
2018-04-01T03:56:51.521Z,57.76
2018-04-01T03:57:51.494Z,58.04
2018-04-01T03:58:51.467Z,58.14
2018-04-01T03:59:51.441Z,58.14
2018-04-01T04:00:51.413Z,58.99
2018-04-01T04:01:51.386Z,58.42
2018-04-01T04:02:51.359Z,61.83
2018-04-01T04:03:51.332Z,59.08
2018-04-01T04:04:51.304Z,56.90
2018-04-01T04:05:51.279Z,57.47
2018-04-01T04:06:51.251Z,60.41
2018-04-01T04:07:51.223Z,61.83
2018-04-01T04:08:51.196Z,60.89
2018-04-01T04:09:51.171Z,62.40
2018-04-01T04:10:51.142Z,61.36
2018-04-01T04:11:51.114Z,60.22
2018-04-01T04:12:51.088Z,57.95
2018-04-01T04:13:51.066Z,58.33
2018-04-01T04:14:51.033Z,55.96
2018-04-01T04:15:51.005Z,55.10
2018-04-01T04:16:50.980Z,55.48
2018-04-01T04:17:51.703Z,56.43
2018-04-01T04:18:50.924Z,53.96
2018-04-01T04:19:50.897Z,53.49
2018-04-01T04:20:50.870Z,52.54
2018-04-01T04:21:50.843Z,56.05
2018-04-01T04:22:50.814Z,57.09
2018-04-01T04:23:50.787Z,54.82
2018-04-01T04:24:50.760Z,54.22
2018-04-01T04:25:50.736Z,55.83
2018-04-01T04:26:50.707Z,52.61
2018-04-01T04:27:50.680Z,55.00
2018-04-01T04:28:50.658Z,54.13
2018-04-01T04:29:50.624Z,52.70
2018-04-01T04:30:50.601Z,52.51
2018-04-01T04:31:50.570Z,51.68
2018-04-01T04:32:50.543Z,56.12
2018-04-01T04:33:51.266Z,56.78
2018-04-01T04:34:50.487Z,54.50
2018-04-01T04:35:50.462Z,52.64
2018-04-01T04:36:50.433Z,51.40
2018-04-01T04:37:50.406Z,51.28
2018-04-01T04:38:50.378Z,55.10
2018-04-01T04:39:50.351Z,54.25
2018-04-01T04:40:50.331Z,57.19
2018-04-01T04:41:50.304Z,56.24
2018-04-01T04:42:50.268Z,59.08
2018-04-01T04:43:50.242Z,57.28
2018-04-01T04:44:50.216Z,57.57
2018-04-01T04:45:50.189Z,56.71
2018-04-01T04:46:50.160Z,56.43
2018-04-01T04:47:50.133Z,56.24
2018-04-01T04:48:50.108Z,54.44
2018-04-01T04:49:50.078Z,54.34
2018-04-01T04:50:50.051Z,55.19
2018-04-01T04:51:50.025Z,55.38
2018-04-01T04:52:49.996Z,58.39
2018-04-01T04:53:49.969Z,57.95
2018-04-01T04:54:49.945Z,57.38
2018-04-01T04:55:49.914Z,55.86
2018-04-01T04:56:49.887Z,54.63
2018-04-01T04:57:49.861Z,56.81
2018-04-01T04:58:49.833Z,57.47
2018-04-01T04:59:49.805Z,56.71
2018-04-01T05:00:50.530Z,57.06
2018-04-01T05:01:49.751Z,56.24
2018-04-01T05:02:49.722Z,55.86
2018-04-01T05:03:49.697Z,60.41
2018-04-01T05:04:49.670Z,58.80
2018-04-01T05:05:49.641Z,56.81
2018-04-01T05:06:49.615Z,56.71
2018-04-01T05:07:49.586Z,56.43
2018-04-01T05:08:49.560Z,56.99
2018-04-01T05:09:49.532Z,55.76
2018-04-01T05:10:49.504Z,55.29
2018-04-01T05:11:49.477Z,59.27
2018-04-01T05:12:49.450Z,58.70
2018-04-01T05:13:49.424Z,57.66
2018-04-01T05:14:49.396Z,59.08
2018-04-01T05:15:49.369Z,58.61
2018-04-01T05:16:50.843Z,57.95
2018-04-01T05:17:49.314Z,56.62
2018-04-01T05:18:49.287Z,56.71
2018-04-01T05:19:49.259Z,58.51
2018-04-01T05:20:49.233Z,59.37
2018-04-01T05:21:49.204Z,60.22
2018-04-01T05:22:49.194Z,60.22
2018-04-01T05:23:49.150Z,60.41
2018-04-01T05:24:49.122Z,59.75
2018-04-01T05:25:49.098Z,60.13
2018-04-01T05:26:49.069Z,59.66
2018-04-01T05:27:49.041Z,59.18
2018-04-01T05:28:49.013Z,59.37
2018-04-01T05:29:48.986Z,58.61
2018-04-01T05:30:48.960Z,56.15
2018-04-01T05:31:48.932Z,56.81
2018-04-01T05:32:48.906Z,56.71
2018-04-01T05:33:48.879Z,60.79
2018-04-01T05:34:48.849Z,61.55
2018-04-01T05:35:48.823Z,60.41
2018-04-01T05:36:48.796Z,58.51
2018-04-01T05:37:48.768Z,59.37
2018-04-01T05:38:48.741Z,60.31
2018-04-01T05:39:48.713Z,60.89
2018-04-01T05:40:48.688Z,61.27
2018-04-01T05:41:48.660Z,60.79
2018-04-01T05:42:48.632Z,60.89
2018-04-01T05:43:48.606Z,61.46
2018-04-01T05:44:48.578Z,61.74
2018-04-01T05:45:48.553Z,60.89
2018-04-01T05:46:48.524Z,61.46
2018-04-01T05:47:48.498Z,61.74
2018-04-01T05:48:48.470Z,62.40
2018-04-01T05:49:48.454Z,61.65
2018-04-01T05:50:48.415Z,62.88
2018-04-01T05:51:48.389Z,61.17
2018-04-01T05:52:48.365Z,61.17
2018-04-01T05:53:48.336Z,65.63
2018-04-01T05:54:48.306Z,65.25
2018-04-01T05:55:48.283Z,64.20
2018-04-01T05:56:48.254Z,63.73
2018-04-01T05:57:48.227Z,65.06
2018-04-01T05:58:48.199Z,63.64
2018-04-01T05:59:48.924Z,63.35
2018-04-01T06:00:48.144Z,65.06
2018-04-01T06:01:48.150Z,64.78
2018-04-01T06:02:48.091Z,62.02
2018-04-01T06:03:48.065Z,62.12
2018-04-01T06:04:48.036Z,63.26
2018-04-01T06:05:48.013Z,63.64
2018-04-01T06:06:48.029Z,61.36
2018-04-01T06:07:47.957Z,61.08
2018-04-01T06:08:47.939Z,60.22
2018-04-01T06:09:47.907Z,63.73
2018-04-01T06:10:47.878Z,64.78
2018-04-01T06:11:47.846Z,64.68
2018-04-01T06:12:47.822Z,63.35
2018-04-01T06:13:47.793Z,63.92
2018-04-01T06:14:47.765Z,64.40
2018-04-01T06:15:47.740Z,62.02
2018-04-01T06:16:47.713Z,62.88
2018-04-01T06:17:47.685Z,62.02
2018-04-01T06:18:47.659Z,59.56
2018-04-01T06:19:47.631Z,58.70
2018-04-01T06:20:47.604Z,55.19
2018-04-01T06:21:47.580Z,53.39
2018-04-01T06:22:47.550Z,57.19
2018-04-01T06:23:47.524Z,54.44
2018-04-01T06:24:47.497Z,52.73
2018-04-01T06:25:47.471Z,53.11
2018-04-01T06:26:47.442Z,49.22
2018-04-01T06:27:47.417Z,52.26
2018-04-01T06:28:47.387Z,49.22
2018-04-01T06:29:47.361Z,50.93
2018-04-01T06:30:47.335Z,53.30
2018-04-01T06:31:47.312Z,50.90
2018-04-01T06:32:47.281Z,48.63
2018-04-01T06:33:47.254Z,48.06
2018-04-01T06:34:47.225Z,49.10
2018-04-01T06:35:47.199Z,50.81
2018-04-01T06:36:47.172Z,47.52
2018-04-01T06:37:47.146Z,49.51
2018-04-01T06:38:47.119Z,50.81
2018-04-01T06:39:47.089Z,50.07
2018-04-01T06:40:47.062Z,50.83
2018-04-01T06:41:47.036Z,48.56
2018-04-01T06:42:47.009Z,49.03
2018-04-01T06:43:46.983Z,47.80
2018-04-01T06:44:46.956Z,50.83
2018-04-01T06:45:46.929Z,52.35
2018-04-01T06:46:46.900Z,51.31
2018-04-01T06:47:46.873Z,50.74
2018-04-01T06:48:46.852Z,49.60
2018-04-01T06:49:46.820Z,47.32
2018-04-01T06:50:46.835Z,52.73
2018-04-01T06:51:46.771Z,52.64
2018-04-01T06:52:46.740Z,50.93
2018-04-01T06:53:46.715Z,52.26
2018-04-01T06:54:46.685Z,57.09
2018-04-01T06:55:46.668Z,55.57
2018-04-01T06:56:46.631Z,55.19
2018-04-01T06:57:46.605Z,60.60
2018-04-01T06:58:46.577Z,61.65
2018-04-01T06:59:46.550Z,63.45
2018-04-01T07:00:46.525Z,61.65
2018-04-01T07:01:46.499Z,60.41
2018-04-01T07:02:46.470Z,60.31
2018-04-01T07:03:46.445Z,59.66
2018-04-01T07:04:46.417Z,59.18
2018-04-01T07:05:46.393Z,56.55
2018-04-01T07:06:46.363Z,57.40
2018-04-01T07:07:46.338Z,70.21
2018-04-01T07:08:46.312Z,70.78
2018-04-01T07:09:46.286Z,71.55
2018-04-01T07:10:46.257Z,77.62
2018-04-01T07:11:46.259Z,70.98
2018-04-01T07:12:46.206Z,69.74
2018-04-01T07:13:46.179Z,75.43
2018-04-01T07:14:46.152Z,76.57
2018-04-01T07:15:46.127Z,72.88
2018-04-01T07:16:46.099Z,74.87
2018-04-01T07:17:46.074Z,71.83
2018-04-01T07:18:47.547Z,74.39
2018-04-01T07:19:46.021Z,76.67
2018-04-01T07:20:45.996Z,76.29
2018-04-01T07:21:45.970Z,76.39
2018-04-01T07:22:45.945Z,76.39
2018-04-01T07:23:45.916Z,79.61
2018-04-01T07:24:45.890Z,75.24
2018-04-01T07:25:45.864Z,76.86
2018-04-01T07:26:45.840Z,84.26
2018-04-01T07:27:45.814Z,82.46
2018-04-01T07:28:45.791Z,79.52
2018-04-01T07:29:45.817Z,83.88
2018-04-01T07:30:45.733Z,85.68
2018-04-01T07:31:45.708Z,84.83
2018-04-01T07:32:45.689Z,83.59
2018-04-01T07:33:45.658Z,79.99
2018-04-01T07:34:45.631Z,80.84
2018-04-01T07:35:45.604Z,81.41
2018-04-01T07:36:45.577Z,82.59
2018-04-01T07:37:45.552Z,80.69
2018-04-01T07:38:45.526Z,78.70
2018-04-01T07:39:45.500Z,83.26
2018-04-01T07:40:45.509Z,85.35
2018-04-01T07:41:45.451Z,86.11
2018-04-01T07:42:45.424Z,89.81
2018-04-01T07:43:45.398Z,87.62
2018-04-01T07:44:45.371Z,88.67
2018-04-01T07:45:45.346Z,87.91
2018-04-01T07:46:45.320Z,86.30
2018-04-01T07:47:45.294Z,92.09
2018-04-01T07:48:45.270Z,89.33
2018-04-01T07:49:45.245Z,87.53
2018-04-01T07:50:45.217Z,88.01
2018-04-01T07:51:48.195Z,90.57
2018-04-01T07:52:45.167Z,91.04
2018-04-01T07:53:45.142Z,81.45
2018-04-01T07:54:45.116Z,93.32
2018-04-01T07:55:45.092Z,92.09
2018-04-01T07:56:45.067Z,82.97
2018-04-01T07:57:45.792Z,93.60
2018-04-01T07:58:45.029Z,85.06
2018-04-01T07:59:44.991Z,86.58
2018-04-01T08:00:44.980Z,93.89
2018-04-01T08:01:44.940Z,91.71
2018-04-01T08:02:44.915Z,86.30
2018-04-01T08:03:44.889Z,87.34
2018-04-01T08:04:44.866Z,90.66
2018-04-01T08:05:44.840Z,87.62
2018-04-01T08:06:44.813Z,89.72
2018-04-01T08:07:44.790Z,91.42
2018-04-01T08:08:44.765Z,87.62
2018-04-01T08:09:44.738Z,87.24
2018-04-01T08:10:44.714Z,90.19
2018-04-01T08:11:44.689Z,92.47
2018-04-01T08:12:44.664Z,89.90
2018-04-01T08:13:44.638Z,88.76
2018-04-01T08:14:44.613Z,93.70
2018-04-01T08:15:44.588Z,93.13
2018-04-01T08:16:44.562Z,90.09
2018-04-01T08:17:44.548Z,90.66
2018-04-01T08:18:44.511Z,89.53
2018-04-01T08:19:44.493Z,90.38
2018-04-01T08:20:44.461Z,90.57
2018-04-01T08:21:44.438Z,93.89
2018-04-01T08:22:44.412Z,93.70
2018-04-01T08:23:44.387Z,93.99
2018-04-01T08:24:44.360Z,94.93
2018-04-01T08:25:44.335Z,93.51
2018-04-01T08:26:44.309Z,94.65
2018-04-01T08:27:44.286Z,90.85
2018-04-01T08:28:45.013Z,89.62
2018-04-01T08:29:44.235Z,92.66
2018-04-01T08:30:44.208Z,93.99
2018-04-01T08:31:44.190Z,91.80
2018-04-01T08:32:44.159Z,90.38
2018-04-01T08:33:44.133Z,89.62
2018-04-01T08:34:44.111Z,93.23
2018-04-01T08:35:44.082Z,90.19
2018-04-01T08:36:44.056Z,89.24
2018-04-01T08:37:44.033Z,89.62
2018-04-01T08:38:44.006Z,88.57
2018-04-01T08:39:43.979Z,92.56
2018-04-01T08:40:43.955Z,93.13
2018-04-01T08:41:43.930Z,90.76
2018-04-01T08:42:43.904Z,89.81
2018-04-01T08:43:43.878Z,91.14
2018-04-01T08:44:43.852Z,90.57
2018-04-01T08:45:43.828Z,93.94
2018-04-01T08:46:43.802Z,93.04
2018-04-01T08:47:43.849Z,95.41
2018-04-01T08:48:43.750Z,95.89
2018-04-01T08:49:43.725Z,94.08
2018-04-01T08:50:43.698Z,92.47
2018-04-01T08:51:43.674Z,93.04
2018-04-01T08:52:43.649Z,95.12
2018-04-01T08:53:43.623Z,91.42
2018-04-01T08:54:43.601Z,90.19
2018-04-01T08:55:43.573Z,93.60
2018-04-01T08:56:43.552Z,90.57
2018-04-01T08:57:43.520Z,93.60
2018-04-01T08:58:43.495Z,90.66
2018-04-01T08:59:43.470Z,89.62
2018-04-01T09:00:43.444Z,91.80
2018-04-01T09:01:43.420Z,86.11
2018-04-01T09:02:43.394Z,83.26
2018-04-01T09:03:43.367Z,84.01
2018-04-01T09:04:43.342Z,83.40
2018-04-01T09:05:43.316Z,86.54
2018-04-01T09:06:43.291Z,84.92
2018-04-01T09:07:43.271Z,84.30
2018-04-01T09:08:43.238Z,85.25
2018-04-01T09:09:43.214Z,84.59
2018-04-01T09:10:43.187Z,89.05
2018-04-01T09:11:43.162Z,83.83
2018-04-01T09:12:43.140Z,88.48
2018-04-01T09:13:43.111Z,80.60
2018-04-01T09:14:43.084Z,83.16
2018-04-01T09:15:43.063Z,88.10
2018-04-01T09:16:43.032Z,87.62
2018-04-01T09:17:43.008Z,87.24
2018-04-01T09:18:42.981Z,83.16
2018-04-01T09:19:42.957Z,84.21
2018-04-01T09:20:42.930Z,83.11
2018-04-01T09:21:42.905Z,87.48
2018-04-01T09:22:42.881Z,85.16
2018-04-01T09:23:42.856Z,86.68
2018-04-01T09:24:42.830Z,88.20
2018-04-01T09:25:42.805Z,86.20
2018-04-01T09:26:42.780Z,87.24
2018-04-01T09:27:42.756Z,85.30
2018-04-01T09:28:42.729Z,85.01
2018-04-01T09:29:42.704Z,82.92
2018-04-01T09:30:42.679Z,87.29
2018-04-01T09:31:42.656Z,85.30
2018-04-01T09:32:43.381Z,81.59
2018-04-01T09:33:42.607Z,84.34
2018-04-01T09:34:42.580Z,84.34
2018-04-01T09:35:42.557Z,85.44
2018-04-01T09:36:42.532Z,83.68
2018-04-01T09:37:42.516Z,84.25
2018-04-01T09:38:42.483Z,87.91
2018-04-01T09:39:42.460Z,85.25
2018-04-01T09:40:42.435Z,87.62
2018-04-01T09:41:42.409Z,86.87
2018-04-01T09:42:42.384Z,83.26
2018-04-01T09:43:44.611Z,87.10
2018-04-01T09:44:42.336Z,88.62
2018-04-01T09:45:42.310Z,83.49
2018-04-01T09:46:42.286Z,89.09
2018-04-01T09:47:42.260Z,91.47
2018-04-01T09:48:42.237Z,86.72
2018-04-01T09:49:44.463Z,90.80
2018-04-01T09:50:42.186Z,86.63
2018-04-01T09:51:42.162Z,88.10
2018-04-01T09:52:42.135Z,86.34
2018-04-01T09:53:42.112Z,91.47
2018-04-01T09:54:43.364Z,91.56
2018-04-01T09:55:42.060Z,88.81
2018-04-01T09:56:42.036Z,94.56
2018-04-01T09:57:42.011Z,96.22
2018-04-01T09:58:41.984Z,94.51
2018-04-01T09:59:41.959Z,91.66
2018-04-01T10:00:41.936Z,90.42
2018-04-01T10:01:41.912Z,92.08
2018-04-01T10:02:41.885Z,91.75
2018-04-01T10:03:41.869Z,93.56
2018-04-01T10:04:41.836Z,90.80
2018-04-01T10:05:41.812Z,95.84
2018-04-01T10:06:42.536Z,93.56
2018-04-01T10:07:41.761Z,90.80
2018-04-01T10:08:41.763Z,93.46
2018-04-01T10:09:41.713Z,92.56
2018-04-01T10:10:41.686Z,91.56
2018-04-01T10:11:41.663Z,91.28
2018-04-01T10:12:41.638Z,90.42
2018-04-01T10:13:41.613Z,90.42
2018-04-01T10:14:41.587Z,89.86
2018-04-01T10:15:41.563Z,91.19
2018-04-01T10:16:41.539Z,93.46
2018-04-01T10:17:41.516Z,91.66
2018-04-01T10:18:41.489Z,91.85
2018-04-01T10:19:41.466Z,92.13
2018-04-01T10:20:41.441Z,91.99
2018-04-01T10:21:41.416Z,93.99
2018-04-01T10:22:41.400Z,94.23
2018-04-01T10:23:41.367Z,95.03
2018-04-01T10:24:41.344Z,94.23
2018-04-01T10:25:41.322Z,94.79
2018-04-01T10:26:41.337Z,89.57
2018-04-01T10:27:41.270Z,92.90
2018-04-01T10:28:41.248Z,89.38
2018-04-01T10:29:41.222Z,90.23
2018-04-01T10:30:41.196Z,91.28
2018-04-01T10:31:41.172Z,90.52
2018-04-01T10:32:41.173Z,91.09
2018-04-01T10:33:41.125Z,88.71
2018-04-01T10:34:41.099Z,87.43
2018-04-01T10:35:41.077Z,79.55
2018-04-01T10:36:41.051Z,80.32
2018-04-01T10:37:41.026Z,83.54
2018-04-01T10:38:41.000Z,86.77
2018-04-01T10:39:40.976Z,81.26
2018-04-01T10:40:40.949Z,84.11
2018-04-01T10:41:40.927Z,86.87
2018-04-01T10:42:40.901Z,83.26
2018-04-01T10:43:40.876Z,80.98
2018-04-01T10:44:40.850Z,82.59
2018-04-01T10:45:40.826Z,83.45
2018-04-01T10:46:40.801Z,78.51
2018-04-01T10:47:47.531Z,77.84
2018-04-01T10:48:40.752Z,81.45
2018-04-01T10:49:40.726Z,84.30
2018-04-01T10:50:40.700Z,82.97
2018-04-01T10:51:40.675Z,78.13
2018-04-01T10:52:40.649Z,83.78
2018-04-01T10:53:41.376Z,77.89
2018-04-01T10:54:40.599Z,83.39
2018-04-01T10:55:40.574Z,83.49
2018-04-01T10:56:40.549Z,84.48
2018-04-01T10:57:40.525Z,81.06
2018-04-01T10:58:40.501Z,90.28
2018-04-01T10:59:40.477Z,88.38
2018-04-01T11:00:40.451Z,91.99
2018-04-01T11:01:40.426Z,90.37
2018-04-01T11:02:40.401Z,89.09
2018-04-01T11:03:40.378Z,88.04
2018-04-01T11:04:40.358Z,93.94
2018-04-01T11:05:40.330Z,97.60
2018-04-01T11:06:40.310Z,98.83
2018-04-01T11:07:40.280Z,99.50
2018-04-01T11:08:40.256Z,96.69
2018-04-01T11:09:40.230Z,99.99
2018-04-01T11:10:40.206Z,99.99
2018-04-01T11:11:40.181Z,99.99
2018-04-01T11:12:40.158Z,98.41
2018-04-01T11:13:40.135Z,99.99
2018-04-01T11:14:40.110Z,99.99
2018-04-01T11:15:40.085Z,99.99
2018-04-01T11:16:40.068Z,99.99
2018-04-01T11:17:40.043Z,99.99
2018-04-01T11:18:40.014Z,99.50
2018-04-01T11:19:39.991Z,99.99
2018-04-01T11:20:39.966Z,98.27
2018-04-01T11:21:39.948Z,99.16
2018-04-01T11:22:39.920Z,97.55
2018-04-01T11:23:39.896Z,96.41
2018-04-01T11:24:39.882Z,95.75
2018-04-01T11:25:39.850Z,97.55
2018-04-01T11:26:39.826Z,97.27
2018-04-01T11:27:39.803Z,96.50
2018-04-01T11:28:39.779Z,93.75
2018-04-01T11:29:39.755Z,95.75
2018-04-01T11:30:39.731Z,97.17
2018-04-01T11:31:39.707Z,94.60
2018-04-01T11:32:39.695Z,93.51
2018-04-01T11:33:39.660Z,96.74
2018-04-01T11:34:39.636Z,93.79
2018-04-01T11:35:39.613Z,90.19
2018-04-01T11:36:39.590Z,96.93
2018-04-01T11:37:39.570Z,86.34
2018-04-01T11:38:39.541Z,88.71
2018-04-01T11:39:39.518Z,84.91
2018-04-01T11:40:39.493Z,85.06
2018-04-01T11:41:39.469Z,77.75
2018-04-01T11:42:39.445Z,73.38
2018-04-01T11:43:39.420Z,69.49
2018-04-01T11:44:39.396Z,69.65
2018-04-01T11:45:39.370Z,64.24
2018-04-01T11:46:39.346Z,61.93
2018-04-01T11:47:39.320Z,56.81
2018-04-01T11:48:39.295Z,57.76
2018-04-01T11:49:39.269Z,57.66
2018-04-01T11:50:39.242Z,50.55
2018-04-01T11:51:39.217Z,50.17
2018-04-01T11:52:39.190Z,52.35
2018-04-01T11:53:39.166Z,49.41
2018-04-01T11:54:39.141Z,49.41
2018-04-01T11:55:39.112Z,47.89
2018-04-01T11:56:39.092Z,46.69
2018-04-01T11:57:39.059Z,66.96
2018-04-01T11:58:39.036Z,61.96
2018-04-01T11:59:39.006Z,58.45
2018-04-01T12:00:38.981Z,75.15
2018-04-01T12:01:38.955Z,70.98
2018-04-01T12:02:38.932Z,66.42
2018-04-01T12:03:38.902Z,72.21
2018-04-01T12:04:38.876Z,61.23
2018-04-01T12:05:41.851Z,66.08
2018-04-01T12:06:38.822Z,76.14
2018-04-01T12:07:38.796Z,71.11
2018-04-01T12:08:38.771Z,66.46
2018-04-01T12:09:38.746Z,72.81
2018-04-01T12:10:38.719Z,75.28
2018-04-01T12:11:43.198Z,78.70
2018-04-01T12:12:38.671Z,78.61
2018-04-01T12:13:38.641Z,71.30
2018-04-01T12:14:38.623Z,67.79
2018-04-01T12:15:38.591Z,62.59
2018-04-01T12:16:38.564Z,69.24
2018-04-01T12:17:39.289Z,73.71
2018-04-01T12:18:38.513Z,83.49
2018-04-01T12:19:38.486Z,90.42
2018-04-01T12:20:38.463Z,83.97
2018-04-01T12:21:38.438Z,86.05
2018-04-01T12:22:38.411Z,88.05
2018-04-01T12:23:38.386Z,95.65
2018-04-01T12:24:38.359Z,89.86
2018-04-01T12:25:38.336Z,92.80
2018-04-01T12:26:38.310Z,91.38
2018-04-01T12:27:38.284Z,86.91
2018-04-01T12:28:39.761Z,88.81
2018-04-01T12:29:38.236Z,89.04
2018-04-01T12:30:38.208Z,95.12
2018-04-01T12:31:38.184Z,91.99
2018-04-01T12:32:38.160Z,93.79
2018-04-01T12:33:38.136Z,89.71
2018-04-01T12:34:41.112Z,96.60
2018-04-01T12:35:38.085Z,90.56
2018-04-01T12:36:38.059Z,91.04
2018-04-01T12:37:38.035Z,93.37
2018-04-01T12:38:38.010Z,92.80
2018-04-01T12:39:37.987Z,93.23
2018-04-01T12:40:37.963Z,98.07
2018-04-01T12:41:37.937Z,96.08
2018-04-01T12:42:37.911Z,91.99
2018-04-01T12:43:37.886Z,98.07
2018-04-01T12:44:37.863Z,96.08
2018-04-01T12:45:37.839Z,97.88
2018-04-01T12:46:37.813Z,95.12
2018-04-01T12:47:37.787Z,96.08
2018-04-01T12:48:37.763Z,97.88
2018-04-01T12:49:37.740Z,99.99
2018-04-01T12:50:37.715Z,97.31
2018-04-01T12:51:37.691Z,99.11
2018-04-01T12:52:37.666Z,99.99